Time;durP1;ratioP1;P1;durP2;ratioP2;P2;SDS_P1;SDS_P2;PMS_P1;PMS_P2;Temp;Humidity;BMP_temperature;BMP_pressure;BME280_temperature;BME280_humidity;BME280_pressure;Samples;Min_cycle;Max_cycle;Signal;HPM_P1;HPM_P2
2023/12/09 00:00:22;;;;;;;98.07;32.97;;;8.40;99.90;;;;;;4984638;28;20122;-64
2023/12/09 00:02:48;;;;;;;93.82;32.30;;;8.50;99.90;;;;;;4980221;28;20618;-63
2023/12/09 00:05:13;;;;;;;97.68;31.08;;;8.40;99.90;;;;;;4980688;28;20041;-63
2023/12/09 00:07:39;;;;;;;103.10;32.40;;;8.50;99.90;;;;;;4980693;28;20034;-63
2023/12/09 00:10:05;;;;;;;108.05;31.60;;;8.40;99.90;;;;;;4962590;28;20527;-63
2023/12/09 00:12:31;;;;;;;111.20;30.77;;;8.40;99.90;;;;;;4978854;28;20038;-64
2023/12/09 00:14:57;;;;;;;96.60;33.15;;;8.50;99.90;;;;;;4980986;28;20045;-64
2023/12/09 00:17:22;;;;;;;110.93;33.88;;;8.40;99.90;;;;;;4979847;28;20499;-63
2023/12/09 00:19:48;;;;;;;98.18;31.85;;;8.40;99.90;;;;;;4989711;28;20084;-63
2023/12/09 00:22:14;;;;;;;104.07;33.10;;;8.40;99.90;;;;;;5000901;28;20610;-63
2023/12/09 00:24:40;;;;;;;101.78;32.83;;;8.40;99.90;;;;;;5002211;28;20038;-63
2023/12/09 00:27:05;;;;;;;90.20;32.03;;;8.50;99.90;;;;;;4996317;28;20069;-63
2023/12/09 00:29:31;;;;;;;92.10;30.90;;;8.50;99.90;;;;;;4994318;28;20037;-63
2023/12/09 00:31:57;;;;;;;94.70;31.85;;;8.50;99.90;;;;;;4992058;28;20912;-63
2023/12/09 00:34:24;;;;;;;100.93;31.63;;;8.40;99.90;;;;;;5000106;28;20081;-63
2023/12/09 00:36:49;;;;;;;93.05;32.22;;;8.50;99.90;;;;;;4999450;28;20050;-63
2023/12/09 00:39:15;;;;;;;91.10;30.70;;;8.40;99.90;;;;;;5002851;28;20042;-63
2023/12/09 00:41:41;;;;;;;95.28;29.50;;;8.40;99.90;;;;;;4997227;28;20076;-63
2023/12/09 00:44:06;;;;;;;94.07;30.23;;;8.40;99.90;;;;;;4999133;28;20068;-63
2023/12/09 00:46:32;;;;;;;103.35;30.85;;;8.50;99.90;;;;;;5005645;28;20049;-64
2023/12/09 00:48:58;;;;;;;90.22;30.42;;;8.40;99.90;;;;;;5000560;28;20038;-63
2023/12/09 00:51:23;;;;;;;79.90;30.30;;;8.50;99.90;;;;;;4994535;28;20624;-64
2023/12/09 00:53:49;;;;;;;84.70;30.10;;;8.40;99.90;;;;;;5002040;28;20172;-64
2023/12/09 00:56:15;;;;;;;86.20;28.42;;;8.40;99.90;;;;;;5005425;28;20506;-64
2023/12/09 00:58:41;;;;;;;81.07;28.33;;;8.40;99.90;;;;;;5001480;28;20052;-63
2023/12/09 01:01:07;;;;;;;80.57;28.83;;;8.40;99.90;;;;;;4989197;28;20073;-63
2023/12/09 01:03:33;;;;;;;72.63;27.00;;;8.50;99.90;;;;;;4998572;28;20122;-63
2023/12/09 01:05:58;;;;;;;81.18;27.98;;;8.50;99.90;;;;;;5003035;28;20045;-63
2023/12/09 01:08:25;;;;;;;79.57;27.48;;;8.60;99.90;;;;;;5001195;28;20509;-64
2023/12/09 01:10:52;;;;;;;78.93;29.73;;;8.50;99.90;;;;;;4996792;28;20087;-63
2023/12/09 01:13:18;;;;;;;75.35;28.00;;;8.50;99.90;;;;;;5001701;28;20714;-63
2023/12/09 01:15:43;;;;;;;76.45;27.70;;;8.50;99.90;;;;;;5000578;28;20120;-63
2023/12/09 01:18:09;;;;;;;81.00;29.85;;;8.50;99.90;;;;;;4999960;28;20073;-63
2023/12/09 01:20:35;;;;;;;76.28;29.77;;;8.50;99.90;;;;;;4995225;28;20052;-63
2023/12/09 01:23:01;;;;;;;73.03;27.25;;;8.50;99.90;;;;;;5001123;28;20077;-63
2023/12/09 01:25:26;;;;;;;81.20;27.75;;;8.50;99.90;;;;;;4997619;28;20435;-64
2023/12/09 01:27:52;;;;;;;66.63;28.55;;;8.60;99.90;;;;;;4997428;28;20038;-63
2023/12/09 01:30:18;;;;;;;77.80;26.48;;;8.60;99.90;;;;;;4997094;28;20042;-63
2023/12/09 01:32:43;;;;;;;69.05;26.63;;;8.50;99.90;;;;;;4996297;28;20046;-63
2023/12/09 01:35:10;;;;;;;69.10;27.20;;;8.60;99.90;;;;;;4998716;28;20053;-63
2023/12/09 01:37:35;;;;;;;78.45;26.17;;;8.60;99.90;;;;;;5000157;28;20042;-63
2023/12/09 01:40:01;;;;;;;71.93;27.80;;;8.60;99.90;;;;;;4979918;28;20050;-63
2023/12/09 01:42:27;;;;;;;68.53;26.50;;;8.70;99.90;;;;;;5001436;28;20861;-63
2023/12/09 01:44:53;;;;;;;62.72;24.58;;;8.60;99.90;;;;;;5000953;28;20049;-63
2023/12/09 01:47:19;;;;;;;79.10;27.15;;;8.70;99.90;;;;;;4999767;28;20045;-64
2023/12/09 01:49:44;;;;;;;80.18;26.38;;;8.60;99.90;;;;;;5001602;28;20049;-63
2023/12/09 01:52:10;;;;;;;70.38;25.02;;;8.70;99.90;;;;;;4999663;28;20277;-63
2023/12/09 01:54:36;;;;;;;67.55;25.20;;;8.70;99.90;;;;;;4985925;28;20108;-63
2023/12/09 01:57:03;;;;;;;62.35;24.95;;;8.60;99.90;;;;;;5007549;28;20555;-63
2023/12/09 01:59:30;;;;;;;64.30;23.90;;;8.70;99.90;;;;;;5006262;28;20587;-63
2023/12/09 02:01:57;;;;;;;59.25;25.02;;;8.70;99.90;;;;;;5004191;28;20052;-63
2023/12/09 02:04:23;;;;;;;81.80;24.65;;;8.70;99.90;;;;;;5000056;28;20042;-64
2023/12/09 02:06:49;;;;;;;57.55;24.55;;;8.70;99.90;;;;;;4998788;28;20152;-63
2023/12/09 02:09:18;;;;;;;61.30;23.42;;;8.80;99.90;;;;;;5004072;28;20483;-63
2023/12/09 02:12:05;;;;;;;58.17;21.95;;;8.70;99.90;;;;;;5005250;28;20035;-63
2023/12/09 02:14:45;;;;;;;65.28;23.77;;;8.80;99.90;;;;;;5002660;28;20246;-64
2023/12/09 02:17:10;;;;;;;;;;;8.80;99.90;;;;;;5005780;28;20432;-63
2023/12/09 02:19:36;;;;;;;61.35;21.13;;;8.70;99.90;;;;;;5002361;28;19937;-62
2023/12/09 02:22:05;;;;;;;66.70;21.63;;;8.70;99.90;;;;;;4993479;28;20045;-64
2023/12/09 02:24:31;;;;;;;54.63;22.63;;;8.80;99.90;;;;;;5002927;28;20489;-63
2023/12/09 02:27:19;;;;;;;60.67;22.48;;;8.90;99.90;;;;;;4992403;28;20042;-63
2023/12/09 02:29:53;;;;;;;58.75;22.58;;;8.80;99.90;;;;;;5002828;28;20118;-64
2023/12/09 02:32:23;;;;;;;64.40;21.45;;;8.70;99.90;;;;;;5002440;28;20080;-63
2023/12/09 02:34:51;;;;;;;68.00;22.10;;;8.80;99.90;;;;;;4997289;28;20113;-64
2023/12/09 02:37:20;;;;;;;64.53;21.95;;;8.80;99.90;;;;;;5004433;28;20034;-63
2023/12/09 02:39:47;;;;;;;63.40;21.60;;;8.80;99.90;;;;;;5004674;28;20060;-63
2023/12/09 02:42:14;;;;;;;56.42;22.15;;;8.80;99.90;;;;;;5005179;28;20033;-63
2023/12/09 02:44:42;;;;;;;63.10;22.15;;;8.90;99.90;;;;;;4999434;28;20116;-63
2023/12/09 02:47:12;;;;;;;63.47;23.60;;;8.80;99.90;;;;;;5001979;28;20034;-63
2023/12/09 02:49:38;;;;;;;58.55;21.08;;;8.80;99.90;;;;;;4998511;28;20057;-63
2023/12/09 02:52:04;;;;;;;62.88;23.30;;;8.80;99.90;;;;;;5000434;28;20038;-63
2023/12/09 02:54:30;;;;;;;61.55;23.45;;;8.80;99.90;;;;;;5006337;28;20646;-63
2023/12/09 02:56:56;;;;;;;59.05;22.05;;;8.80;99.90;;;;;;5008366;28;20042;-63
2023/12/09 02:59:22;;;;;;;61.10;22.27;;;8.80;99.90;;;;;;4997221;28;20139;-64
2023/12/09 03:01:47;;;;;;;64.75;22.27;;;8.80;99.90;;;;;;5000735;28;20645;-63
2023/12/09 03:04:13;;;;;;;60.10;20.98;;;8.70;99.90;;;;;;5012858;28;20048;-63
2023/12/09 03:06:39;;;;;;;61.45;21.02;;;8.80;99.90;;;;;;5002968;28;20065;-63
2023/12/09 03:09:05;;;;;;;45.53;20.13;;;8.70;99.90;;;;;;5004042;28;20119;-63
2023/12/09 03:11:31;;;;;;;51.95;19.38;;;8.70;99.90;;;;;;5001227;28;20517;-63
2023/12/09 03:13:56;;;;;;;54.67;20.67;;;8.80;99.90;;;;;;4997876;28;20354;-64
2023/12/09 03:16:22;;;;;;;62.13;20.27;;;8.70;99.90;;;;;;5006367;28;20045;-63
2023/12/09 03:18:48;;;;;;;45.83;18.88;;;8.80;99.90;;;;;;5003499;28;20046;-64
2023/12/09 03:21:15;;;;;;;58.10;19.65;;;8.70;99.90;;;;;;5003003;28;20578;-63
2023/12/09 03:23:44;;;;;;;61.65;21.10;;;8.70;99.90;;;;;;4998629;28;20038;-63
2023/12/09 03:26:14;;;;;;;52.92;18.92;;;8.80;99.90;;;;;;4989633;28;20114;-63
2023/12/09 03:28:41;;;;;;;48.97;18.77;;;8.70;99.90;;;;;;5005365;28;20082;-63
2023/12/09 03:31:06;;;;;;;56.60;20.52;;;8.70;99.90;;;;;;5000113;28;20504;-64
2023/12/09 03:33:33;;;;;;;56.28;17.98;;;8.70;99.90;;;;;;5006001;28;20044;-63
2023/12/09 03:35:59;;;;;;;55.80;17.40;;;8.70;99.90;;;;;;4980816;28;20096;-63
2023/12/09 03:38:25;;;;;;;50.35;18.10;;;8.70;99.90;;;;;;4999894;28;20045;-63
2023/12/09 03:40:50;;;;;;;45.42;17.15;;;8.70;99.90;;;;;;5004881;28;20049;-63
2023/12/09 03:43:16;;;;;;;45.05;17.05;;;8.70;99.90;;;;;;4978644;28;20033;-63
2023/12/09 03:45:42;;;;;;;53.38;16.70;;;8.60;99.90;;;;;;5000076;28;20347;-63
2023/12/09 03:48:08;;;;;;;46.22;16.58;;;8.60;99.90;;;;;;4998455;28;20134;-63
2023/12/09 03:50:35;;;;;;;36.50;16.65;;;8.60;99.90;;;;;;4992242;28;20057;-63
2023/12/09 03:53:00;;;;;;;51.47;17.05;;;8.60;99.90;;;;;;4994712;28;20120;-63
2023/12/09 03:55:26;;;;;;;44.28;17.02;;;8.60;99.90;;;;;;4996609;28;20041;-63
2023/12/09 03:57:53;;;;;;;47.55;16.20;;;8.60;99.90;;;;;;4998991;28;20515;-63
2023/12/09 04:00:19;;;;;;;51.13;17.35;;;8.60;99.90;;;;;;4996090;28;20168;-62
2023/12/09 04:02:44;;;;;;;44.67;16.73;;;8.50;99.90;;;;;;4996463;28;20045;-64
2023/12/09 04:05:10;;;;;;;50.80;18.17;;;8.60;99.90;;;;;;4999343;28;20286;-63
2023/12/09 04:07:36;;;;;;;41.20;16.50;;;8.60;99.90;;;;;;4995234;28;20517;-64
2023/12/09 04:10:03;;;;;;;43.70;16.73;;;8.60;99.90;;;;;;4991579;28;20100;-63
2023/12/09 04:12:29;;;;;;;48.72;17.08;;;8.60;99.90;;;;;;4992128;28;20048;-63
2023/12/09 04:14:55;;;;;;;50.85;16.83;;;8.60;99.90;;;;;;4996699;28;20038;-64
2023/12/09 04:17:21;;;;;;;44.90;17.10;;;8.60;99.90;;;;;;4993135;28;20045;-64
2023/12/09 04:19:47;;;;;;;53.80;18.90;;;8.50;99.90;;;;;;4995226;28;20092;-63
2023/12/09 04:22:13;;;;;;;44.28;16.58;;;8.60;99.90;;;;;;4993838;28;20041;-63
2023/12/09 04:24:42;;;;;;;46.50;17.25;;;8.50;99.90;;;;;;4995942;28;20064;-64
2023/12/09 04:27:07;;;;;;;46.83;17.45;;;8.60;99.90;;;;;;4979292;28;20116;-63
2023/12/09 04:29:33;;;;;;;48.08;18.02;;;8.60;99.90;;;;;;4979559;28;20599;-63
2023/12/09 04:31:59;;;;;;;37.10;16.23;;;8.50;99.90;;;;;;4990580;28;20033;-62
2023/12/09 04:34:25;;;;;;;35.38;15.73;;;8.50;99.90;;;;;;4997872;28;20049;-63
2023/12/09 04:40:32;;;;;;;40.88;15.77;;;8.60;99.90;;;;;;5011004;23;20061;-63
2023/12/09 04:42:57;;;;;;;38.90;16.05;;;8.50;99.90;;;;;;5025662;28;20491;-64
2023/12/09 04:45:23;;;;;;;49.70;16.73;;;8.50;99.90;;;;;;5034466;28;20044;-63
2023/12/09 04:47:49;;;;;;;47.53;16.27;;;8.50;99.90;;;;;;5034821;28;20037;-65
2023/12/09 04:50:15;;;;;;;41.30;16.58;;;8.50;99.90;;;;;;5037609;28;20121;-62
2023/12/09 04:52:41;;;;;;;39.38;15.57;;;8.60;99.90;;;;;;5035215;28;20045;-63
2023/12/09 04:55:08;;;;;;;38.92;14.93;;;8.50;99.90;;;;;;5028684;28;20488;-64
2023/12/09 04:57:33;;;;;;;40.25;15.40;;;8.50;99.90;;;;;;5027811;28;20429;-63
2023/12/09 05:00:03;;;;;;;38.50;15.18;;;8.60;99.90;;;;;;5013836;28;20511;-63
2023/12/09 05:02:29;;;;;;;40.92;14.43;;;8.50;99.90;;;;;;5031768;28;20456;-63
2023/12/09 05:04:55;;;;;;;40.33;14.07;;;8.50;99.90;;;;;;5035345;28;20041;-63
2023/12/09 05:07:25;;;;;;;36.13;15.63;;;8.50;99.90;;;;;;5035403;28;20234;-63
2023/12/09 05:09:52;;;;;;;44.20;15.65;;;8.50;99.90;;;;;;5040912;28;20151;-63
2023/12/09 05:12:18;;;;;;;42.58;15.00;;;8.50;99.90;;;;;;5026951;28;20037;-64
2023/12/09 05:14:44;;;;;;;35.70;15.65;;;8.50;99.90;;;;;;5015988;28;20709;-63
2023/12/09 05:17:11;;;;;;;45.17;15.02;;;8.50;99.90;;;;;;5035063;28;20033;-63
2023/12/09 05:19:37;;;;;;;37.28;14.45;;;8.50;99.90;;;;;;5032595;28;20038;-64
2023/12/09 05:22:03;;;;;;;41.20;14.35;;;8.50;99.90;;;;;;5037842;28;20056;-63
2023/12/09 05:24:28;;;;;;;41.80;14.93;;;8.50;99.90;;;;;;5015934;28;20037;-63
2023/12/09 05:26:55;;;;;;;38.30;14.32;;;8.50;99.90;;;;;;5037984;28;20921;-63
2023/12/09 05:29:21;;;;;;;39.97;13.50;;;8.50;99.90;;;;;;5031976;28;20044;-63
2023/12/09 05:31:47;;;;;;;41.90;14.38;;;8.50;99.90;;;;;;5035314;28;20113;-63
2023/12/09 05:34:13;;;;;;;47.92;14.50;;;8.50;99.90;;;;;;5038022;28;20068;-63
2023/12/09 05:36:38;;;;;;;43.58;14.52;;;8.50;99.90;;;;;;5032718;28;20041;-62
2023/12/09 05:39:05;;;;;;;42.60;14.27;;;8.50;99.90;;;;;;5037208;28;20502;-63
2023/12/09 05:41:31;;;;;;;40.97;13.40;;;8.50;99.90;;;;;;5033627;28;20507;-64
2023/12/09 05:43:56;;;;;;;52.53;14.68;;;8.50;99.90;;;;;;5037320;28;20044;-63
2023/12/09 05:46:22;;;;;;;42.28;13.68;;;8.50;99.90;;;;;;5033457;28;20041;-64
2023/12/09 05:48:49;;;;;;;50.97;13.02;;;8.50;99.90;;;;;;5036197;28;20041;-63
2023/12/09 05:51:15;;;;;;;50.35;14.93;;;8.60;99.90;;;;;;5039021;28;20072;-63
2023/12/09 05:53:41;;;;;;;46.53;14.93;;;8.50;99.90;;;;;;5030709;28;20045;-63
2023/12/09 05:56:14;;;;;;;40.85;13.70;;;8.60;99.90;;;;;;5032723;28;20044;-63
2023/12/09 05:58:40;;;;;;;43.15;14.02;;;8.50;99.90;;;;;;5035388;28;20067;-63
2023/12/09 06:01:06;;;;;;;42.33;12.85;;;8.60;99.90;;;;;;5016244;28;20492;-63
2023/12/09 06:03:32;;;;;;;39.47;13.90;;;8.50;99.90;;;;;;5038724;28;20048;-63
2023/12/09 06:05:58;;;;;;;36.20;14.35;;;8.50;99.90;;;;;;5036903;28;20041;-63
2023/12/09 06:08:24;;;;;;;42.08;13.23;;;8.50;99.90;;;;;;5038759;28;20083;-64
2023/12/09 06:10:50;;;;;;;48.55;14.35;;;8.50;99.90;;;;;;5035808;28;20069;-63
2023/12/09 06:13:16;;;;;;;41.85;13.75;;;8.50;99.90;;;;;;5019554;28;20052;-63
2023/12/09 06:15:42;;;;;;;50.70;14.68;;;8.50;99.90;;;;;;5039085;28;20033;-63
2023/12/09 06:18:08;;;;;;;46.95;13.43;;;8.50;99.90;;;;;;5040239;28;20045;-63
2023/12/09 06:20:34;;;;;;;45.30;12.82;;;8.40;99.90;;;;;;5036183;28;20053;-63
2023/12/09 06:23:00;;;;;;;44.92;13.57;;;8.30;99.90;;;;;;5030902;28;20128;-63
2023/12/09 06:25:26;;;;;;;41.60;12.52;;;8.40;99.90;;;;;;5037782;28;20131;-63
2023/12/09 06:27:51;;;;;;;47.10;12.73;;;8.40;99.90;;;;;;5032838;28;20067;-63
2023/12/09 06:30:17;;;;;;;47.33;14.25;;;8.40;99.90;;;;;;5036367;28;20060;-63
2023/12/09 06:32:43;;;;;;;50.45;12.57;;;8.40;99.90;;;;;;5039918;28;20162;-63
2023/12/09 06:35:09;;;;;;;48.67;13.45;;;8.60;99.90;;;;;;5036551;28;20047;-64
2023/12/09 06:37:35;;;;;;;32.55;11.73;;;8.50;99.90;;;;;;5035656;28;20049;-63
2023/12/09 06:40:01;;;;;;;32.92;11.95;;;8.40;99.90;;;;;;5034023;28;20051;-63
2023/12/09 06:42:26;;;;;;;40.13;12.48;;;8.40;99.90;;;;;;5034828;28;20071;-63
2023/12/09 06:44:52;;;;;;;41.85;12.98;;;8.40;99.90;;;;;;5019028;28;20424;-63
2023/12/09 06:47:19;;;;;;;36.30;11.88;;;8.40;99.90;;;;;;5038996;28;20075;-63
2023/12/09 06:49:44;;;;;;;30.88;11.52;;;8.40;99.90;;;;;;5017411;28;20527;-62
2023/12/09 06:52:10;;;;;;;34.75;12.55;;;8.40;99.90;;;;;;5034885;28;20049;-63
2023/12/09 06:54:36;;;;;;;37.15;11.35;;;8.40;99.90;;;;;;5026620;28;20118;-63
2023/12/09 06:57:02;;;;;;;42.97;12.60;;;8.40;99.90;;;;;;5027390;28;21307;-62
2023/12/09 06:59:28;;;;;;;33.13;11.65;;;8.30;99.90;;;;;;5027623;28;20141;-63
2023/12/09 07:01:57;;;;;;;35.13;11.32;;;8.30;99.90;;;;;;5030533;28;20037;-63
2023/12/09 07:04:22;;;;;;;43.47;12.70;;;8.30;99.90;;;;;;5029131;28;20045;-63
2023/12/09 07:06:48;;;;;;;34.78;11.70;;;8.30;99.90;;;;;;5036610;28;20035;-63
2023/12/09 07:09:14;;;;;;;44.40;12.48;;;8.30;99.90;;;;;;5027731;28;20518;-63
2023/12/09 07:11:40;;;;;;;31.95;10.50;;;8.30;99.90;;;;;;5032928;28;21658;-63
2023/12/09 07:14:06;;;;;;;35.42;11.30;;;8.30;99.90;;;;;;5030933;28;20048;-63
2023/12/09 07:16:32;;;;;;;34.83;11.00;;;8.30;99.90;;;;;;5017524;28;20044;-63
2023/12/09 07:19:00;;;;;;;31.42;12.25;;;8.40;99.90;;;;;;5030163;28;20049;-63
2023/12/09 07:21:29;;;;;;;31.75;10.90;;;8.30;99.90;;;;;;5032185;28;20067;-63
2023/12/09 07:23:55;;;;;;;33.53;11.18;;;8.30;99.90;;;;;;5032644;28;20450;-63
2023/12/09 07:26:22;;;;;;;30.20;11.15;;;8.30;99.90;;;;;;4999905;28;20110;-62
2023/12/09 07:28:48;;;;;;;31.52;10.90;;;8.30;99.90;;;;;;5035871;28;20557;-63
2023/12/09 07:31:15;;;;;;;34.40;11.18;;;8.30;99.90;;;;;;5010844;28;20492;-63
2023/12/09 07:33:41;;;;;;;34.90;12.23;;;8.30;99.90;;;;;;5021727;28;20043;-63
2023/12/09 07:36:07;;;;;;;39.30;12.45;;;8.20;99.90;;;;;;5021618;28;20529;-63
2023/12/09 07:38:32;;;;;;;25.13;10.70;;;8.20;99.90;;;;;;5022169;28;20045;-63
2023/12/09 07:40:58;;;;;;;39.40;11.20;;;8.20;99.90;;;;;;5023942;28;20033;-63
2023/12/09 07:43:24;;;;;;;36.08;11.27;;;8.20;99.90;;;;;;5021800;28;20449;-63
2023/12/09 07:45:50;;;;;;;36.10;10.73;;;8.10;99.90;;;;;;5022937;28;20033;-63
2023/12/09 07:48:16;;;;;;;38.47;11.20;;;8.10;99.90;;;;;;5024151;28;20485;-63
2023/12/09 07:50:41;;;;;;;35.13;10.77;;;8.10;99.90;;;;;;5024350;28;20220;-63
2023/12/09 07:53:07;;;;;;;32.72;10.98;;;8.10;99.90;;;;;;5024113;28;20044;-63
2023/12/09 07:55:33;;;;;;;29.63;9.80;;;8.10;99.90;;;;;;5024726;28;20044;-63
2023/12/09 07:58:00;;;;;;;30.92;11.15;;;8.00;99.90;;;;;;5007671;28;20049;-63
2023/12/09 08:00:29;;;;;;;33.10;11.82;;;8.10;99.90;;;;;;5022114;28;20040;-63
2023/12/09 08:02:55;;;;;;;36.47;10.32;;;8.00;99.90;;;;;;5023582;28;20032;-62
2023/12/09 08:05:24;;;;;;;39.00;11.10;;;8.00;99.90;;;;;;5022612;28;20507;-63
2023/12/09 08:07:50;;;;;;;31.27;10.38;;;8.00;99.90;;;;;;5019415;28;20029;-64
2023/12/09 08:10:17;;;;;;;32.15;9.38;;;8.00;99.90;;;;;;5021320;28;20057;-63
2023/12/09 08:12:43;;;;;;;32.10;10.55;;;8.00;99.90;;;;;;5023597;28;20050;-63
2023/12/09 08:15:09;;;;;;;27.13;9.90;;;8.00;99.90;;;;;;5025674;28;20149;-63
2023/12/09 08:17:35;;;;;;;29.67;9.70;;;8.00;99.90;;;;;;5024586;28;20097;-63
2023/12/09 08:20:00;;;;;;;49.03;11.27;;;8.00;99.90;;;;;;5023325;28;20146;-63
2023/12/09 08:22:26;;;;;;;28.50;10.13;;;8.00;99.90;;;;;;5019873;28;20403;-63
2023/12/09 08:24:52;;;;;;;32.45;9.65;;;7.90;99.90;;;;;;5026169;28;20474;-63
2023/12/09 08:27:18;;;;;;;25.80;9.45;;;8.00;99.90;;;;;;5020668;28;20036;-62
2023/12/09 08:29:44;;;;;;;29.60;9.15;;;8.00;99.90;;;;;;5023504;28;20075;-63
2023/12/09 08:32:10;;;;;;;28.17;8.98;;;8.00;99.90;;;;;;5021997;28;20376;-63
2023/12/09 08:34:36;;;;;;;29.42;9.45;;;8.00;99.90;;;;;;5023008;28;20389;-63
2023/12/09 08:37:02;;;;;;;29.42;9.52;;;8.00;99.90;;;;;;5022524;28;20443;-63
2023/12/09 08:39:28;;;;;;;30.83;8.98;;;8.00;99.90;;;;;;5004122;28;20490;-63
2023/12/09 08:41:54;;;;;;;42.80;10.07;;;7.90;99.90;;;;;;5007991;28;20527;-63
2023/12/09 08:44:19;;;;;;;22.42;8.65;;;8.00;99.90;;;;;;5034087;28;20037;-63
2023/12/09 08:46:45;;;;;;;27.08;8.75;;;7.90;99.90;;;;;;5025265;28;21335;-63
2023/12/09 08:49:12;;;;;;;28.50;8.27;;;8.00;99.90;;;;;;4982216;28;20040;-63
2023/12/09 08:51:47;;;;;;;27.85;7.88;;;8.00;99.90;;;;;;5025665;28;20693;-63
2023/12/09 08:54:14;;;;;;;27.23;7.68;;;7.90;99.90;;;;;;5037290;28;20051;-63
2023/12/09 08:56:40;;;;;;;24.48;8.27;;;8.00;99.90;;;;;;5027237;28;20037;-62
2023/12/09 08:59:07;;;;;;;26.27;7.93;;;8.00;99.90;;;;;;5033394;28;20055;-63
2023/12/09 09:01:37;;;;;;;25.05;7.88;;;7.90;99.90;;;;;;5028324;28;20053;-63
2023/12/09 09:04:03;;;;;;;31.10;9.13;;;8.00;99.90;;;;;;5023281;28;20175;-63
2023/12/09 09:06:30;;;;;;;20.00;7.45;;;8.00;99.90;;;;;;5030597;28;20037;-64
2023/12/09 09:08:56;;;;;;;17.90;7.30;;;8.00;99.90;;;;;;5020825;28;20318;-63
2023/12/09 09:11:23;;;;;;;27.05;7.43;;;8.00;99.90;;;;;;5013818;28;20178;-63
2023/12/09 09:13:48;;;;;;;28.98;6.47;;;8.00;99.90;;;;;;5012020;28;20122;-63
2023/12/09 09:16:15;;;;;;;27.27;6.00;;;8.00;99.90;;;;;;4999932;28;20033;-63
2023/12/09 09:18:42;;;;;;;26.70;7.70;;;8.00;99.90;;;;;;5016324;28;20566;-63
2023/12/09 09:21:08;;;;;;;33.33;7.57;;;8.00;99.90;;;;;;5016269;28;20464;-61
2023/12/09 09:23:34;;;;;;;21.50;6.63;;;8.00;99.90;;;;;;5013809;28;20727;-63
2023/12/09 09:26:00;;;;;;;23.02;6.10;;;8.00;99.90;;;;;;5022220;28;20041;-63
2023/12/09 09:28:28;;;;;;;24.02;6.03;;;8.10;99.90;;;;;;5021416;28;20824;-63
2023/12/09 09:30:54;;;;;;;22.60;5.57;;;8.10;99.90;;;;;;5005186;28;20450;-63
2023/12/09 09:33:20;;;;;;;21.33;6.35;;;8.10;99.90;;;;;;5022571;28;20041;-62
2023/12/09 09:35:51;;;;;;;21.65;5.95;;;8.10;99.90;;;;;;5021497;28;20629;-63
2023/12/09 09:38:17;;;;;;;15.30;5.18;;;8.10;99.90;;;;;;5023809;28;20041;-63
2023/12/09 09:40:42;;;;;;;23.35;6.15;;;8.10;99.90;;;;;;5031551;28;20378;-63
2023/12/09 09:43:15;;;;;;;19.42;5.45;;;8.10;99.90;;;;;;5034519;28;20041;-62
2023/12/09 09:45:45;;;;;;;21.40;5.20;;;8.10;99.90;;;;;;5021819;28;20045;-63
2023/12/09 09:48:16;;;;;;;24.20;5.63;;;8.20;99.90;;;;;;5022927;28;20653;-63
2023/12/09 09:50:45;;;;;;;21.90;6.50;;;8.20;99.90;;;;;;5024070;28;20622;-63
2023/12/09 09:53:24;;;;;;;25.08;6.18;;;8.30;99.90;;;;;;5032175;28;20412;-63
2023/12/09 09:55:51;;;;;;;22.15;6.45;;;8.30;99.90;;;;;;5028929;28;20045;-63
2023/12/09 09:58:17;;;;;;;18.40;5.32;;;8.30;99.90;;;;;;5035648;28;21393;-63
2023/12/09 10:00:44;;;;;;;26.38;5.85;;;8.30;99.90;;;;;;5038789;28;20041;-63
2023/12/09 10:03:09;;;;;;;20.27;4.97;;;8.20;99.90;;;;;;5016083;28;20203;-63
2023/12/09 10:05:35;;;;;;;23.45;5.65;;;8.20;99.90;;;;;;5019505;28;20079;-63
2023/12/09 10:08:01;;;;;;;20.52;5.25;;;8.20;99.90;;;;;;5035656;28;20041;-63
2023/12/09 10:10:27;;;;;;;16.83;4.70;;;8.20;99.90;;;;;;5035299;28;20040;-63
2023/12/09 10:12:52;;;;;;;18.10;4.80;;;8.20;99.90;;;;;;5028988;28;20589;-63
2023/12/09 10:15:18;;;;;;;26.48;5.00;;;8.30;99.90;;;;;;5037275;28;20163;-65
2023/12/09 10:17:47;;;;;;;21.63;4.53;;;8.30;99.90;;;;;;5041539;28;20040;-63
2023/12/09 10:20:15;;;;;;;25.23;7.32;;;8.30;99.90;;;;;;5036325;28;20045;-63
2023/12/09 10:22:41;;;;;;;17.33;4.65;;;8.30;99.90;;;;;;5038124;28;20040;-64
2023/12/09 10:25:07;;;;;;;18.17;4.70;;;8.30;99.90;;;;;;5035974;28;20045;-63
2023/12/09 10:27:34;;;;;;;18.98;4.65;;;8.20;99.90;;;;;;5030414;28;20068;-63
2023/12/09 10:30:00;;;;;;;18.92;4.35;;;8.30;99.90;;;;;;5026741;28;20048;-63
2023/12/09 10:32:26;;;;;;;17.25;4.57;;;8.30;99.90;;;;;;5027572;28;20091;-63
2023/12/09 10:34:52;;;;;;;20.17;4.22;;;8.30;99.90;;;;;;5026638;28;20041;-63
2023/12/09 10:37:18;;;;;;;20.40;4.70;;;8.40;99.90;;;;;;5025735;28;20045;-62
2023/12/09 10:39:46;;;;;;;16.95;5.03;;;8.40;99.90;;;;;;5026237;28;20295;-63
2023/12/09 10:42:12;;;;;;;19.05;3.72;;;8.40;99.90;;;;;;5035154;28;20037;-63
2023/12/09 10:44:39;;;;;;;17.00;4.05;;;8.40;99.90;;;;;;5037528;28;20596;-62
2023/12/09 10:47:05;;;;;;;12.88;4.10;;;8.40;99.90;;;;;;5038688;28;20045;-63
2023/12/09 10:49:31;;;;;;;16.33;4.10;;;8.40;99.90;;;;;;5037013;28;20404;-63
2023/12/09 10:51:57;;;;;;;16.02;4.50;;;8.50;99.90;;;;;;5034532;28;20048;-63
2023/12/09 10:54:23;;;;;;;13.00;3.97;;;8.60;99.90;;;;;;5039409;28;20043;-63
2023/12/09 10:56:49;;;;;;;13.88;4.13;;;8.60;99.90;;;;;;5016060;28;20108;-63
2023/12/09 10:59:19;;;;;;;20.15;4.68;;;8.60;99.90;;;;;;5037095;28;20826;-64
2023/12/09 11:01:45;;;;;;;14.40;3.60;;;8.60;99.90;;;;;;5037278;28;20139;-64
2023/12/09 11:04:12;;;;;;;13.20;4.13;;;8.70;99.90;;;;;;5036697;28;20038;-63
2023/12/09 11:06:41;;;;;;;14.32;4.10;;;8.60;99.90;;;;;;5037927;28;20045;-63
2023/12/09 11:09:08;;;;;;;15.25;3.42;;;8.70;99.90;;;;;;5033131;28;20154;-63
2023/12/09 11:11:35;;;;;;;14.38;3.58;;;8.70;99.90;;;;;;5036527;28;20047;-63
2023/12/09 11:14:01;;;;;;;13.43;3.55;;;8.70;99.90;;;;;;5036467;28;20553;-63
2023/12/09 11:16:28;;;;;;;13.35;3.55;;;8.70;99.90;;;;;;5031691;28;20041;-63
2023/12/09 11:18:55;;;;;;;14.52;4.15;;;8.70;99.90;;;;;;5026399;28;20614;-63
2023/12/09 11:21:23;;;;;;;15.13;3.83;;;8.70;99.90;;;;;;5030921;28;20037;-63
2023/12/09 11:23:53;;;;;;;16.58;3.92;;;8.70;99.90;;;;;;5038303;28;20580;-63
2023/12/09 11:26:33;;;;;;;13.13;3.10;;;8.70;99.90;;;;;;5019439;28;20044;-63
2023/12/09 11:29:01;;;;;;;13.95;4.10;;;8.70;99.90;;;;;;5026043;28;20037;-63
2023/12/09 11:31:46;;;;;;;15.00;3.60;;;8.70;99.90;;;;;;5026725;28;20037;-63
2023/12/09 11:34:15;;;;;;;16.55;3.33;;;8.70;99.90;;;;;;5026759;28;20258;-63
2023/12/09 11:36:41;;;;;;;;;;;8.70;99.90;;;;;;5026813;28;20041;-64
2023/12/09 11:39:17;;;;;;;12.98;3.53;;;8.60;99.90;;;;;;5034887;28;20028;-63
2023/12/09 11:41:44;;;;;;;11.35;2.90;;;8.70;99.90;;;;;;5030898;28;20040;-63
2023/12/09 11:44:10;;;;;;;14.18;4.75;;;8.70;99.90;;;;;;5031706;28;20538;-63
2023/12/09 11:46:37;;;;;;;8.25;2.60;;;8.60;99.90;;;;;;5026945;28;20036;-64
2023/12/09 11:49:04;;;;;;;17.27;4.10;;;8.70;99.90;;;;;;5027877;28;20116;-63
2023/12/09 11:51:31;;;;;;;16.70;3.90;;;8.70;99.90;;;;;;5028344;28;20579;-64
2023/12/09 11:53:59;;;;;;;12.35;3.08;;;8.70;99.90;;;;;;5032313;28;20037;-63
2023/12/09 11:56:26;;;;;;;16.33;3.23;;;8.70;99.90;;;;;;5031626;28;20045;-63
2023/12/09 11:58:52;;;;;;;10.63;3.50;;;8.70;99.90;;;;;;5024308;28;20284;-63
2023/12/09 12:01:19;;;;;;;18.75;4.07;;;8.80;99.90;;;;;;5024520;28;20056;-63
2023/12/09 12:03:47;;;;;;;13.85;3.83;;;8.80;99.90;;;;;;5009278;28;20041;-63
2023/12/09 12:06:16;;;;;;;12.77;3.33;;;8.70;99.90;;;;;;5002645;28;20404;-63
2023/12/09 12:08:50;;;;;;;12.23;3.80;;;8.80;99.90;;;;;;5026125;28;20036;-63
2023/12/09 12:11:17;;;;;;;13.23;3.47;;;8.80;99.90;;;;;;5037488;28;20552;-63
2023/12/09 12:13:44;;;;;;;13.75;3.47;;;8.80;99.90;;;;;;5023710;28;20135;-65
2023/12/09 12:16:11;;;;;;;11.77;3.40;;;8.80;99.90;;;;;;5025043;28;20036;-64
2023/12/09 12:18:37;;;;;;;15.82;3.15;;;8.80;99.90;;;;;;5005457;28;20565;-63
2023/12/09 12:21:03;;;;;;;8.57;2.95;;;8.80;99.90;;;;;;5028216;28;20041;-63
2023/12/09 12:23:29;;;;;;;11.15;3.33;;;8.80;99.90;;;;;;5038796;28;20420;-63
2023/12/09 12:25:56;;;;;;;13.35;3.13;;;8.80;99.90;;;;;;5033882;28;21070;-63
2023/12/09 12:28:22;;;;;;;13.93;3.72;;;8.90;99.90;;;;;;5026240;28;20303;-63
2023/12/09 12:30:52;;;;;;;10.25;3.22;;;8.90;99.90;;;;;;5007061;28;20261;-63
2023/12/09 12:33:24;;;;;;;12.07;3.17;;;8.90;99.90;;;;;;5026538;28;20131;-63
2023/12/09 12:35:53;;;;;;;12.35;3.33;;;8.90;99.90;;;;;;5023650;28;20478;-63
2023/12/09 12:38:23;;;;;;;11.55;3.15;;;8.90;99.90;;;;;;5026707;28;20072;-63
2023/12/09 12:40:53;;;;;;;14.93;3.58;;;8.90;99.90;;;;;;5035797;28;20118;-63